Nicholville, NY (12965)

10:46 PM EST on February 05, 2016 (GMT -0500)
Nichols Road (Buckton) | | Change Station
CLOSE
Current Station
Personal Weather Station
Location: Winthrop, NY
Elevation: 453 ft
Nearby Weather Stations

Elev 453 ft 44.73 °N, 74.78 °W | Updated 20 seconds ago

Clear
Clear
23.7 °F
Feels Like 17 °F
N
5.0
Wind Variable Wind from South
Gusts 10.0 mph

Today
High -- | Low -- °F
--% Chance of Precip.
Yesterday
High -- | Low -- °F
Precip. -- in
Pressure 30.29 in
Visibility 10.0 miles
Clouds Clear
Windchill 17 °F
Dew Point 16 °F
Humidity 72%
Rainfall 0.00 in
Snow Depth Not available.
7:13 AM 5:12 PM
Waning Crescent, 8% visible
METAR KMSS 060253Z AUTO 00000KT 10SM CLR M08/M12 A3026 RMK AO2 SLP255 T10831117 58006
Pressure 30.29 in
Visibility 10.0 miles
Clouds Clear
Windchill 17 °F
Dew Point 16 °F
Humidity 72%
Rainfall 0.00 in
Snow Depth Not available.
7:13 AM 5:12 PM
Waning Crescent, 8% visible
METAR KMSS 060253Z AUTO 00000KT 10SM CLR M08/M12 A3026 RMK AO2 SLP255 T10831117 58006

10-Day Weather Forecast

Almanac

Astronomy

Feb. 05, 2016 Rise Set
Actual Time
Civil Twilight
Nautical Twilight
Astronomical Twilight
Moon
Length of Visible Light
Length of Day
Tomorrow will be .
, % of the Moon is Illuminated

Today's Extremes

State Highs State Lows

Community

WunderPhotos

Upload Photos

1,890,922 photos uploaded!

WunderBlog® & News

Nearby

Air Quality

  Air Quality AQ Index Pollutant
Not available.

Snow Depth

Station Depth Elevation

Earthquake Activity

City Distance Mag. Time & Date
Minimum magnitude displayed is 2.5.

Coastal Water Temperatures

Place Temperature

Stations

Nearby Weather Stations

Station Location Temp. Windchill Dew Point Humidity Wind Precip. Elev Updated Type
                   

Watches & Warnings

There are currently no watches in effect.